Huntsville's Hourly Summary for Monday, July 9, 2018
Hour Temp
(f)
RH
(%)
Solar Rad.
(MJ/m2)
Rainfall
(in)
Wind
(mph)
7/9/2018 12:00 AM 71 89 0 0 0.02
7/9/2018 1:00 AM 70 90 0 0 0.02
7/9/2018 2:00 AM 70 91 0 0 0
7/9/2018 3:00 AM 70 91 0 0 0
7/9/2018 4:00 AM 70 91 0 0 0
7/9/2018 5:00 AM 71 90 0 0 0.01
7/9/2018 6:00 AM 71 90 0.01 0 0
7/9/2018 7:00 AM 71 89 0.1 0 0
7/9/2018 8:00 AM 73 84 0.29 0 0
7/9/2018 9:00 AM 75 82 0.4 0 0
7/9/2018 10:00 AM 77 81 0.61 0 0
7/9/2018 11:00 AM 78 72 1.23 0 0
7/9/2018 12:00 PM 79 69 0.92 0 0.97
7/9/2018 1:00 PM 74 82 0.23 0.04 0.23
7/9/2018 2:00 PM 73 86 0.4 0 2.29
7/9/2018 3:00 PM 71 79 0.97 0 3.27
7/9/2018 4:00 PM 74 75 0.77 0 0.55
7/9/2018 5:00 PM 75 76 0.48 0 0.26
7/9/2018 6:00 PM 74 77 0.25 0 0.24
7/9/2018 7:00 PM 73 83 0.17 0 0.21
7/9/2018 8:00 PM 72 86 0.02 0 0.02
7/9/2018 9:00 PM 70 89 0 0 0
7/9/2018 10:00 PM 70 90 0 0 0
7/9/2018 11:00 PM 70 89 0 0 0
Data Summary 72 84 6.85 0.04 0.34